createdAt,value
2019-03-27T00:01:26.998Z,6.10
2019-03-27T00:05:39.767Z,6.10
2019-03-27T00:09:52.606Z,6.10
2019-03-27T00:14:03.843Z,6.10
2019-03-27T00:18:14.949Z,6.10
2019-03-27T00:22:27.531Z,6.10
2019-03-27T00:26:38.569Z,6.10
2019-03-27T00:30:52.507Z,6.20
2019-03-27T00:35:04.094Z,6.20
2019-03-27T00:39:15.224Z,6.10
2019-03-27T00:43:26.694Z,6.10
2019-03-27T00:47:37.829Z,6.10
2019-03-27T00:51:50.863Z,6.10
2019-03-27T00:56:02.099Z,6.10
2019-03-27T01:00:25.220Z,6.10
2019-03-27T01:04:36.411Z,6.10
2019-03-27T01:08:47.791Z,6.10
2019-03-27T01:12:58.852Z,6.10
2019-03-27T01:17:10.007Z,6.10
2019-03-27T01:21:21.051Z,6.10
2019-03-27T01:25:31.114Z,6.10
2019-03-27T01:29:42.329Z,6.10
2019-03-27T01:33:53.672Z,6.00
2019-03-27T01:38:04.953Z,6.00
2019-03-27T01:42:16.165Z,6.00
2019-03-27T01:46:27.295Z,6.00
2019-03-27T01:50:38.002Z,6.00
2019-03-27T01:54:49.290Z,6.00
2019-03-27T01:59:00.404Z,6.00
2019-03-27T02:03:11.528Z,6.00
2019-03-27T02:07:22.653Z,6.00
2019-03-27T02:11:35.121Z,6.00
2019-03-27T02:15:47.627Z,6.00
2019-03-27T02:19:58.764Z,5.90
2019-03-27T02:24:09.937Z,5.90
2019-03-27T02:28:21.153Z,5.90
2019-03-27T02:32:32.189Z,5.90
2019-03-27T02:36:44.075Z,5.90
2019-03-27T02:40:55.273Z,5.90
2019-03-27T02:45:07.484Z,5.90
2019-03-27T02:49:18.571Z,5.90
2019-03-27T02:53:31.160Z,5.90
2019-03-27T02:57:42.792Z,5.90
2019-03-27T03:01:53.863Z,5.90
2019-03-27T03:06:04.966Z,5.90
2019-03-27T03:10:17.773Z,5.90
2019-03-27T03:14:30.150Z,5.90
2019-03-27T03:18:41.293Z,5.90
2019-03-27T03:22:52.149Z,5.80
2019-03-27T03:27:03.251Z,5.90
2019-03-27T03:31:14.280Z,5.80
2019-03-27T03:35:25.428Z,5.90
2019-03-27T03:39:35.989Z,5.90
2019-03-27T03:43:47.030Z,5.90
2019-03-27T03:47:58.345Z,5.90
2019-03-27T03:52:09.968Z,5.90
2019-03-27T03:56:21.080Z,5.90
2019-03-27T04:00:33.459Z,5.90
2019-03-27T04:04:47.143Z,5.90
2019-03-27T04:08:57.862Z,5.80
2019-03-27T04:13:08.909Z,5.90
2019-03-27T04:17:18.982Z,5.80
2019-03-27T04:21:30.069Z,5.80
2019-03-27T04:26:06.936Z,5.80
2019-03-27T04:29:54.008Z,5.80
2019-03-27T04:34:06.915Z,5.80
2019-03-27T04:38:17.931Z,5.80
2019-03-27T04:42:30.363Z,5.80
2019-03-27T04:46:41.427Z,5.80
2019-03-27T04:50:52.694Z,5.70
2019-03-27T04:55:04.526Z,5.60
2019-03-27T04:59:15.529Z,5.60
2019-03-27T05:03:26.813Z,5.60
2019-03-27T05:07:38.066Z,5.60
2019-03-27T05:11:49.314Z,5.60
2019-03-27T05:16:00.313Z,5.60
2019-03-27T05:20:11.428Z,5.70
2019-03-27T05:24:22.476Z,5.70
2019-03-27T05:28:33.630Z,5.70
2019-03-27T05:32:44.614Z,5.80
2019-03-27T05:36:55.784Z,5.80
2019-03-27T05:41:07.228Z,5.80
2019-03-27T05:45:18.218Z,5.90
2019-03-27T05:49:29.501Z,5.90
2019-03-27T05:53:40.598Z,5.90
2019-03-27T05:57:51.679Z,5.90
2019-03-27T06:02:03.177Z,5.90
2019-03-27T06:06:14.210Z,5.90
2019-03-27T06:10:26.203Z,6.00
2019-03-27T06:14:37.251Z,6.00
2019-03-27T06:18:48.351Z,6.00
2019-03-27T06:22:59.496Z,6.00
2019-03-27T06:27:10.927Z,6.00
2019-03-27T06:31:22.073Z,6.10
2019-03-27T06:35:33.142Z,6.10
2019-03-27T06:39:44.458Z,6.10
2019-03-27T06:43:55.513Z,6.20
2019-03-27T06:48:07.198Z,6.20
2019-03-27T06:52:18.346Z,6.30
2019-03-27T06:56:29.374Z,6.30
2019-03-27T07:00:41.895Z,6.40
2019-03-27T07:04:53.553Z,6.40
2019-03-27T07:09:07.525Z,6.40
2019-03-27T07:13:18.524Z,6.50
2019-03-27T07:17:29.568Z,6.50
2019-03-27T07:21:40.688Z,6.60
2019-03-27T07:25:51.718Z,6.60
2019-03-27T07:30:02.751Z,6.60
2019-03-27T07:34:13.434Z,6.70
2019-03-27T07:38:24.636Z,6.80
2019-03-27T07:42:35.708Z,6.80
2019-03-27T07:46:45.730Z,6.80
2019-03-27T07:50:57.083Z,6.80
2019-03-27T07:55:19.313Z,7.00
2019-03-27T07:59:25.516Z,7.20
2019-03-27T08:03:36.671Z,7.10
2019-03-27T08:07:48.623Z,7.20
2019-03-27T08:12:00.158Z,7.20
2019-03-27T08:16:11.332Z,7.10
2019-03-27T08:20:22.678Z,7.10
2019-03-27T08:24:33.823Z,7.10
2019-03-27T08:28:44.975Z,7.10
2019-03-27T08:32:56.694Z,7.10
2019-03-27T08:37:07.912Z,7.10
2019-03-27T08:41:19.081Z,7.20
2019-03-27T08:45:35.086Z,7.30
2019-03-27T08:49:46.377Z,7.30
2019-03-27T08:53:57.939Z,7.40
2019-03-27T08:58:08.998Z,7.30
2019-03-27T09:02:20.082Z,7.40
2019-03-27T09:06:33.914Z,7.60
2019-03-27T09:10:46.045Z,7.70
2019-03-27T09:14:56.730Z,7.80
2019-03-27T09:19:07.850Z,7.90
2019-03-27T09:23:18.906Z,7.80
2019-03-27T09:27:29.894Z,7.90
2019-03-27T09:31:44.977Z,7.90
2019-03-27T09:35:53.682Z,7.70
2019-03-27T09:40:07.498Z,7.70
2019-03-27T09:44:23.274Z,8.00
2019-03-27T09:48:34.362Z,8.10
2019-03-27T09:52:45.448Z,8.30
2019-03-27T09:56:57.505Z,8.50
2019-03-27T10:01:08.900Z,8.80
2019-03-27T10:05:20.031Z,9.00
2019-03-27T10:09:32.535Z,9.00
2019-03-27T10:13:44.304Z,9.00
2019-03-27T10:17:55.640Z,9.00
2019-03-27T10:22:06.755Z,9.10
2019-03-27T10:26:17.892Z,8.90
2019-03-27T10:30:29.105Z,8.60
2019-03-27T10:34:40.220Z,8.60
2019-03-27T10:38:51.511Z,8.80
2019-03-27T10:43:02.580Z,8.80
2019-03-27T10:47:13.665Z,9.00
2019-03-27T10:51:24.687Z,9.40
2019-03-27T10:55:35.958Z,9.60
2019-03-27T10:59:47.131Z,9.60
2019-03-27T11:03:58.391Z,9.60
2019-03-27T11:08:11.459Z,10.00
2019-03-27T11:12:22.117Z,10.00
2019-03-27T11:16:33.555Z,9.70
2019-03-27T11:20:44.794Z,10.00
2019-03-27T11:24:57.483Z,10.10
2019-03-27T11:29:08.548Z,10.30
2019-03-27T11:33:19.527Z,10.60
2019-03-27T11:37:30.734Z,10.50
2019-03-27T11:41:43.099Z,10.40
2019-03-27T11:45:54.500Z,9.90
2019-03-27T11:50:09.594Z,9.80
2019-03-27T11:54:20.639Z,9.90
2019-03-27T11:58:31.672Z,9.90
2019-03-27T12:02:42.775Z,9.80
2019-03-27T12:06:54.300Z,9.90
2019-03-27T12:11:05.716Z,10.10
2019-03-27T12:15:19.876Z,10.10
2019-03-27T12:19:31.132Z,10.00
2019-03-27T12:23:42.134Z,9.90
2019-03-27T12:27:53.666Z,10.00
2019-03-27T12:32:05.159Z,10.10
2019-03-27T12:36:16.429Z,10.00
2019-03-27T12:40:27.606Z,9.90
2019-03-27T12:44:38.727Z,10.00
2019-03-27T12:48:49.930Z,10.30
2019-03-27T12:53:01.171Z,10.50
2019-03-27T12:57:12.742Z,10.70
2019-03-27T13:01:25.063Z,10.70
2019-03-27T13:05:36.863Z,10.80
2019-03-27T13:09:47.914Z,10.80
2019-03-27T13:13:58.926Z,10.90
2019-03-27T13:18:10.260Z,10.80
2019-03-27T13:22:21.473Z,10.80
2019-03-27T13:26:34.185Z,10.90
2019-03-27T13:30:48.162Z,10.80
2019-03-27T13:34:59.458Z,10.90
2019-03-27T13:39:10.523Z,10.90
2019-03-27T13:43:21.683Z,10.90
2019-03-27T13:47:33.047Z,10.70
2019-03-27T13:51:44.177Z,10.40
2019-03-27T13:55:55.305Z,10.40
2019-03-27T14:00:11.385Z,10.40
2019-03-27T14:04:22.440Z,10.40
2019-03-27T14:08:33.482Z,10.50
2019-03-27T14:12:45.865Z,10.60
2019-03-27T14:16:56.942Z,10.70
2019-03-27T14:21:08.033Z,10.90
2019-03-27T14:25:22.096Z,10.90
2019-03-27T14:29:32.255Z,10.90
2019-03-27T14:33:43.284Z,10.90
2019-03-27T14:37:54.547Z,10.90
2019-03-27T14:42:05.752Z,10.80
2019-03-27T14:46:17.215Z,10.70
2019-03-27T14:50:28.579Z,10.70
2019-03-27T14:54:39.871Z,10.60
2019-03-27T14:58:51.494Z,10.60
2019-03-27T15:03:02.595Z,10.50
2019-03-27T15:07:15.273Z,10.60
2019-03-27T15:11:26.409Z,10.80
2019-03-27T15:15:37.573Z,10.80
2019-03-27T15:19:48.664Z,10.60
2019-03-27T15:23:59.880Z,10.60
2019-03-27T15:28:10.910Z,10.60
2019-03-27T15:32:22.079Z,10.60
2019-03-27T15:36:33.130Z,10.60
2019-03-27T15:40:45.865Z,10.50
2019-03-27T15:44:57.230Z,10.50
2019-03-27T15:49:08.459Z,10.50
2019-03-27T15:53:19.529Z,10.40
2019-03-27T15:57:30.622Z,10.40
2019-03-27T16:01:41.680Z,10.40
2019-03-27T16:05:52.733Z,10.40
2019-03-27T16:10:05.805Z,10.50
2019-03-27T16:14:16.967Z,10.50
2019-03-27T16:18:28.119Z,10.50
2019-03-27T16:22:49.778Z,10.60
2019-03-27T16:27:03.887Z,10.60
2019-03-27T16:31:04.779Z,10.60
2019-03-27T16:35:15.928Z,10.50
2019-03-27T16:39:27.282Z,10.50
2019-03-27T16:43:38.371Z,10.50
2019-03-27T16:47:49.613Z,10.50
2019-03-27T16:52:00.668Z,10.50
2019-03-27T16:56:11.839Z,10.40
2019-03-27T17:00:23.133Z,10.40
2019-03-27T17:04:34.203Z,10.40
2019-03-27T17:08:45.838Z,10.50
2019-03-27T17:12:56.919Z,10.50
2019-03-27T17:17:07.975Z,10.40
2019-03-27T17:21:19.035Z,10.40
2019-03-27T17:25:31.400Z,10.40
2019-03-27T17:29:42.478Z,10.40
2019-03-27T17:33:53.740Z,10.40
2019-03-27T17:38:04.959Z,10.30
2019-03-27T17:42:16.010Z,10.20
2019-03-27T17:46:27.123Z,10.10
2019-03-27T17:50:38.281Z,10.10
2019-03-27T17:54:49.478Z,9.90
2019-03-27T17:59:00.532Z,9.80
2019-03-27T18:03:11.561Z,9.70
2019-03-27T18:07:22.547Z,9.60
2019-03-27T18:11:33.676Z,9.70
2019-03-27T18:15:44.735Z,9.80
2019-03-27T18:19:55.785Z,9.80
2019-03-27T18:24:06.956Z,9.80
2019-03-27T18:28:18.009Z,9.80
2019-03-27T18:32:29.582Z,9.80
2019-03-27T18:36:40.626Z,9.80
2019-03-27T18:40:51.995Z,9.90
2019-03-27T18:45:03.561Z,9.90
2019-03-27T18:49:14.837Z,9.90
2019-03-27T18:53:26.074Z,9.80
2019-03-27T18:57:37.399Z,9.70
2019-03-27T19:01:48.527Z,9.60
2019-03-27T19:05:59.807Z,9.40
2019-03-27T19:10:11.102Z,9.30
2019-03-27T19:14:22.131Z,9.20
2019-03-27T19:18:33.746Z,9.20
2019-03-27T19:22:44.899Z,9.20
2019-03-27T19:26:55.537Z,9.10
2019-03-27T19:31:06.851Z,9.00
2019-03-27T19:35:19.415Z,8.90
2019-03-27T19:39:30.516Z,8.80
2019-03-27T19:43:41.633Z,8.80
2019-03-27T19:47:52.873Z,8.80
2019-03-27T19:52:04.132Z,8.80
2019-03-27T19:56:15.252Z,8.80
2019-03-27T20:00:26.746Z,8.80
2019-03-27T20:04:38.056Z,8.90
2019-03-27T20:08:49.236Z,9.00
2019-03-27T20:13:00.215Z,9.00
2019-03-27T20:17:11.273Z,9.10
2019-03-27T20:21:22.412Z,9.10
2019-03-27T20:25:33.463Z,9.10
2019-03-27T20:29:46.479Z,9.10
2019-03-27T20:33:57.287Z,9.00
2019-03-27T20:38:08.351Z,9.10
2019-03-27T20:42:19.337Z,9.10
2019-03-27T20:46:31.522Z,9.10
2019-03-27T20:50:42.561Z,9.10
2019-03-27T20:54:55.344Z,9.10
2019-03-27T20:59:06.323Z,9.00
2019-03-27T21:03:17.355Z,9.00
2019-03-27T21:07:28.502Z,9.00
2019-03-27T21:11:39.579Z,9.00
2019-03-27T21:15:50.562Z,8.90
2019-03-27T21:20:01.675Z,9.00
2019-03-27T21:24:12.822Z,9.00
2019-03-27T21:28:24.346Z,9.00
2019-03-27T21:32:35.331Z,9.00
2019-03-27T21:36:46.413Z,9.00
2019-03-27T21:40:57.516Z,9.00
2019-03-27T21:45:09.282Z,9.00
2019-03-27T21:49:20.620Z,9.00
2019-03-27T21:53:31.741Z,9.00
2019-03-27T21:57:42.811Z,9.00
2019-03-27T22:01:53.847Z,8.90
2019-03-27T22:06:05.191Z,8.90
2019-03-27T22:10:16.333Z,8.90
2019-03-27T22:14:27.385Z,8.90
2019-03-27T22:18:38.377Z,8.90
2019-03-27T22:22:48.424Z,8.90
2019-03-27T22:26:58.558Z,8.90
2019-03-27T22:31:10.697Z,8.90
2019-03-27T22:35:21.752Z,8.90
2019-03-27T22:39:32.739Z,8.90
2019-03-27T22:43:43.848Z,8.80
2019-03-27T22:47:53.962Z,8.80
2019-03-27T22:52:04.999Z,8.80
2019-03-27T22:56:16.000Z,8.70
2019-03-27T23:00:46.490Z,8.70
2019-03-27T23:04:57.978Z,8.70
2019-03-27T23:09:08.584Z,8.70
2019-03-27T23:13:19.741Z,8.60
2019-03-27T23:17:31.183Z,8.60
2019-03-27T23:21:43.962Z,8.60
2019-03-27T23:26:02.914Z,8.60
2019-03-27T23:30:09.313Z,8.50
2019-03-27T23:34:23.424Z,8.60
2019-03-27T23:38:37.067Z,8.50
2019-03-27T23:42:48.991Z,8.60
2019-03-27T23:47:01.416Z,8.60
2019-03-27T23:51:12.882Z,8.50
2019-03-27T23:55:23.982Z,8.50
2019-03-27T23:59:34.926Z,8.50
